Veurne, Belgium
Current Conditions -  °F | °C
As of 1:25 AM on Thursday 23 Oct 2014 (Local Time) from EBFN Reporting Station
Broken Clouds Broken Clouds  
Wind Chill: 50°   Ceiling: 4200
Heat Index: 50°   Visibility: 6mi
Dew Point: 46°   Wind: 7mph
Humidity: 87%   Direction: 210°SSW
Pressure: 30.24"   Gusts: NA
Location:  51.07°N, 2.66°E
Report Text: EBFN 222325Z 21006KT 9999 FEW027 BKN042 10/08 Q1024 BLU
Loading
Personal Weather Stations






























Interactive Weather Map
Tropical Storm Tracking
New forecast layout! Learn more

10-Day Weather Forecast

Advertisements
Track Severe Weather on mobile